sensor_id;sensor_type;location;lat;lon;timestamp;pressure;altitude;pressure_sealevel;temperature;humidity
64086;BME280;50333;47.436;21.390;2023-01-27T00:01:04;100643.56;;;3.73;63.77
64086;BME280;50333;47.436;21.390;2023-01-27T00:03:32;100625.09;;;3.76;64.02
64086;BME280;50333;47.436;21.390;2023-01-27T00:06:00;100633.47;;;3.97;63.47
64086;BME280;50333;47.436;21.390;2023-01-27T00:08:31;100626.91;;;4.01;63.44
64086;BME280;50333;47.436;21.390;2023-01-27T00:11:00;100628.47;;;3.77;63.95
64086;BME280;50333;47.436;21.390;2023-01-27T00:13:46;100633.72;;;3.57;64.92
64086;BME280;50333;47.436;21.390;2023-01-27T00:16:14;100625.44;;;3.87;64.20
64086;BME280;50333;47.436;21.390;2023-01-27T00:18:42;100627.72;;;3.70;64.45
64086;BME280;50333;47.436;21.390;2023-01-27T00:21:11;100628.16;;;3.60;64.49
64086;BME280;50333;47.436;21.390;2023-01-27T00:23:57;100620.09;;;3.11;66.26
64086;BME280;50333;47.436;21.390;2023-01-27T00:26:44;100621.66;;;3.57;64.83
64086;BME280;50333;47.436;21.390;2023-01-27T00:29:12;100622.25;;;3.53;65.04
64086;BME280;50333;47.436;21.390;2023-01-27T00:31:39;100613.50;;;3.61;64.75
64086;BME280;50333;47.436;21.390;2023-01-27T00:34:26;100611.16;;;3.52;65.42
64086;BME280;50333;47.436;21.390;2023-01-27T00:36:54;100611.69;;;3.29;65.29
64086;BME280;50333;47.436;21.390;2023-01-27T00:39:21;100600.69;;;3.09;66.62
64086;BME280;50333;47.436;21.390;2023-01-27T00:41:49;100603.78;;;3.24;66.04
64086;BME280;50333;47.436;21.390;2023-01-27T00:44:17;100609.06;;;3.36;65.63
64086;BME280;50333;47.436;21.390;2023-01-27T00:46:45;100606.13;;;3.26;66.18
64086;BME280;50333;47.436;21.390;2023-01-27T00:49:13;100609.22;;;3.48;65.65
64086;BME280;50333;47.436;21.390;2023-01-27T00:51:41;100615.28;;;3.21;66.79
64086;BME280;50333;47.436;21.390;2023-01-27T00:54:09;100609.75;;;3.18;66.86
64086;BME280;50333;47.436;21.390;2023-01-27T00:56:37;100600.78;;;2.82;68.00
64086;BME280;50333;47.436;21.390;2023-01-27T00:59:05;100609.25;;;3.41;66.23
64086;BME280;50333;47.436;21.390;2023-01-27T01:01:33;100598.16;;;3.40;65.99
64086;BME280;50333;47.436;21.390;2023-01-27T01:04:02;100595.59;;;3.66;65.76
64086;BME280;50333;47.436;21.390;2023-01-27T01:06:30;100592.97;;;3.47;65.68
64086;BME280;50333;47.436;21.390;2023-01-27T01:08:58;100583.34;;;3.61;65.98
64086;BME280;50333;47.436;21.390;2023-01-27T01:11:26;100567.38;;;3.77;65.67
64086;BME280;50333;47.436;21.390;2023-01-27T01:13:54;100576.97;;;3.32;66.84
64086;BME280;50333;47.436;21.390;2023-01-27T01:16:23;100575.00;;;3.34;66.33
64086;BME280;50333;47.436;21.390;2023-01-27T01:18:52;100582.72;;;2.95;68.12
64086;BME280;50333;47.436;21.390;2023-01-27T01:21:20;100584.75;;;3.57;66.63
64086;BME280;50333;47.436;21.390;2023-01-27T01:23:48;100587.78;;;3.54;66.76
64086;BME280;50333;47.436;21.390;2023-01-27T01:26:16;100579.59;;;3.57;66.69
64086;BME280;50333;47.436;21.390;2023-01-27T01:28:45;100577.84;;;3.57;66.67
64086;BME280;50333;47.436;21.390;2023-01-27T01:31:17;100571.66;;;3.58;67.08
64086;BME280;50333;47.436;21.390;2023-01-27T01:33:48;100568.66;;;3.62;67.10
64086;BME280;50333;47.436;21.390;2023-01-27T01:36:18;100563.94;;;3.58;67.25
64086;BME280;50333;47.436;21.390;2023-01-27T01:38:47;100558.94;;;3.00;69.42
64086;BME280;50333;47.436;21.390;2023-01-27T01:41:18;100563.72;;;3.28;68.11
64086;BME280;50333;47.436;21.390;2023-01-27T01:43:47;100572.41;;;3.34;67.79
64086;BME280;50333;47.436;21.390;2023-01-27T01:46:17;100568.87;;;3.28;68.26
64086;BME280;50333;47.436;21.390;2023-01-27T01:49:03;100556.81;;;2.77;68.86
64086;BME280;50333;47.436;21.390;2023-01-27T01:51:34;100569.50;;;3.24;67.96
64086;BME280;50333;47.436;21.390;2023-01-27T01:56:55;100553.81;;;2.87;69.19
64086;BME280;50333;47.436;21.390;2023-01-27T01:59:31;100549.19;;;3.09;68.31
64086;BME280;50333;47.436;21.390;2023-01-27T02:02:03;100549.41;;;3.00;69.28
64086;BME280;50333;47.436;21.390;2023-01-27T02:04:38;100552.50;;;3.16;68.34
64086;BME280;50333;47.436;21.390;2023-01-27T02:07:12;100547.81;;;3.38;67.77
64086;BME280;50333;47.436;21.390;2023-01-27T02:09:43;100554.00;;;3.30;67.51
64086;BME280;50333;47.436;21.390;2023-01-27T02:12:11;100540.50;;;2.44;70.50
64086;BME280;50333;47.436;21.390;2023-01-27T02:14:40;100538.78;;;2.77;69.37
64086;BME280;50333;47.436;21.390;2023-01-27T02:17:11;100538.66;;;2.65;70.22
64086;BME280;50333;47.436;21.390;2023-01-27T02:22:17;100533.09;;;2.68;70.34
64086;BME280;50333;47.436;21.390;2023-01-27T02:24:48;100531.75;;;2.59;70.40
64086;BME280;50333;47.436;21.390;2023-01-27T02:27:20;100531.75;;;2.59;70.47
64086;BME280;50333;47.436;21.390;2023-01-27T02:29:49;100525.47;;;2.93;69.52
64086;BME280;50333;47.436;21.390;2023-01-27T02:32:24;100527.03;;;2.94;68.91
64086;BME280;50333;47.436;21.390;2023-01-27T02:34:54;100528.16;;;2.67;69.27
64086;BME280;50333;47.436;21.390;2023-01-27T02:37:23;100523.31;;;2.32;71.17
64086;BME280;50333;47.436;21.390;2023-01-27T02:39:54;100515.75;;;2.50;70.47
64086;BME280;50333;47.436;21.390;2023-01-27T02:42:24;100523.84;;;2.99;69.16
64086;BME280;50333;47.436;21.390;2023-01-27T02:44:51;100524.50;;;2.36;70.72
64086;BME280;50333;47.436;21.390;2023-01-27T02:47:19;100523.59;;;2.69;70.32
64086;BME280;50333;47.436;21.390;2023-01-27T02:49:47;100521.81;;;3.08;68.81
64086;BME280;50333;47.436;21.390;2023-01-27T02:52:16;100518.34;;;2.37;70.86
64086;BME280;50333;47.436;21.390;2023-01-27T02:54:44;100509.97;;;2.61;69.95
64086;BME280;50333;47.436;21.390;2023-01-27T02:57:11;100505.44;;;2.95;69.14
64086;BME280;50333;47.436;21.390;2023-01-27T02:59:42;100507.50;;;2.80;69.40
64086;BME280;50333;47.436;21.390;2023-01-27T03:02:09;100494.78;;;2.47;70.14
64086;BME280;50333;47.436;21.390;2023-01-27T03:04:41;100496.47;;;1.94;71.21
64086;BME280;50333;47.436;21.390;2023-01-27T03:07:09;100502.38;;;2.08;71.75
64086;BME280;50333;47.436;21.390;2023-01-27T03:09:36;100490.12;;;2.69;70.04
64086;BME280;50333;47.436;21.390;2023-01-27T03:12:05;100481.47;;;2.56;70.03
64086;BME280;50333;47.436;21.390;2023-01-27T03:14:49;100487.66;;;2.42;70.62
64086;BME280;50333;47.436;21.390;2023-01-27T03:17:37;100484.63;;;2.58;69.88
64086;BME280;50333;47.436;21.390;2023-01-27T03:20:23;100490.06;;;2.82;69.28
64086;BME280;50333;47.436;21.390;2023-01-27T03:22:51;100494.75;;;2.53;69.66
64086;BME280;50333;47.436;21.390;2023-01-27T03:25:20;100494.41;;;2.88;69.35
64086;BME280;50333;47.436;21.390;2023-01-27T03:27:48;100493.88;;;2.73;69.86
64086;BME280;50333;47.436;21.390;2023-01-27T03:30:17;100495.09;;;2.63;69.78
64086;BME280;50333;47.436;21.390;2023-01-27T03:32:46;100489.44;;;2.48;70.25
64086;BME280;50333;47.436;21.390;2023-01-27T03:35:15;100494.22;;;2.83;69.10
64086;BME280;50333;47.436;21.390;2023-01-27T03:37:44;100487.78;;;2.67;69.20
64086;BME280;50333;47.436;21.390;2023-01-27T03:40:30;100490.38;;;2.60;69.35
64086;BME280;50333;47.436;21.390;2023-01-27T03:43:17;100480.13;;;2.86;68.63
64086;BME280;50333;47.436;21.390;2023-01-27T03:46:04;100475.62;;;2.81;67.85
64086;BME280;50333;47.436;21.390;2023-01-27T03:48:42;100467.03;;;2.55;69.08
64086;BME280;50333;47.436;21.390;2023-01-27T03:51:10;100469.56;;;2.62;68.22
64086;BME280;50333;47.436;21.390;2023-01-27T03:53:38;100469.19;;;2.97;67.40
64086;BME280;50333;47.436;21.390;2023-01-27T03:56:06;100458.97;;;2.83;67.23
64086;BME280;50333;47.436;21.390;2023-01-27T03:58:36;100454.97;;;3.19;66.75
64086;BME280;50333;47.436;21.390;2023-01-27T04:01:11;100453.16;;;2.63;67.80
64086;BME280;50333;47.436;21.390;2023-01-27T04:03:40;100445.72;;;2.80;67.49
64086;BME280;50333;47.436;21.390;2023-01-27T04:06:29;100447.28;;;2.49;67.69
64086;BME280;50333;47.436;21.390;2023-01-27T04:09:27;100435.38;;;2.48;68.05
64086;BME280;50333;47.436;21.390;2023-01-27T04:11:57;100434.56;;;2.54;68.25
64086;BME280;50333;47.436;21.390;2023-01-27T04:14:34;100441.13;;;2.43;67.63
64086;BME280;50333;47.436;21.390;2023-01-27T04:17:06;100441.78;;;2.32;68.20
64086;BME280;50333;47.436;21.390;2023-01-27T04:19:36;100439.66;;;2.16;68.74
64086;BME280;50333;47.436;21.390;2023-01-27T04:22:05;100435.00;;;2.83;66.62
64086;BME280;50333;47.436;21.390;2023-01-27T04:24:33;100444.06;;;2.54;66.78
64086;BME280;50333;47.436;21.390;2023-01-27T04:27:06;100436.63;;;2.39;66.32
64086;BME280;50333;47.436;21.390;2023-01-27T04:29:37;100441.03;;;2.18;67.18
64086;BME280;50333;47.436;21.390;2023-01-27T04:32:09;100445.81;;;2.67;66.03
64086;BME280;50333;47.436;21.390;2023-01-27T04:34:38;100437.88;;;2.16;67.22
64086;BME280;50333;47.436;21.390;2023-01-27T04:37:07;100449.34;;;2.14;67.32
64086;BME280;50333;47.436;21.390;2023-01-27T04:39:36;100441.59;;;2.34;66.94
64086;BME280;50333;47.436;21.390;2023-01-27T04:42:04;100438.84;;;2.74;65.82
64086;BME280;50333;47.436;21.390;2023-01-27T04:44:32;100436.50;;;2.66;65.51
64086;BME280;50333;47.436;21.390;2023-01-27T04:47:00;100429.59;;;2.98;64.76
64086;BME280;50333;47.436;21.390;2023-01-27T04:49:27;100427.41;;;2.95;64.57
64086;BME280;50333;47.436;21.390;2023-01-27T04:51:55;100439.78;;;2.41;65.58
64086;BME280;50333;47.436;21.390;2023-01-27T04:54:25;100435.25;;;2.75;65.14
64086;BME280;50333;47.436;21.390;2023-01-27T04:56:58;100443.47;;;2.58;65.93
64086;BME280;50333;47.436;21.390;2023-01-27T04:59:27;100432.94;;;2.98;64.78
64086;BME280;50333;47.436;21.390;2023-01-27T05:01:55;100433.59;;;2.87;64.93
64086;BME280;50333;47.436;21.390;2023-01-27T05:04:22;100433.97;;;2.52;66.02
64086;BME280;50333;47.436;21.390;2023-01-27T05:06:53;100432.97;;;2.60;65.65
64086;BME280;50333;47.436;21.390;2023-01-27T05:09:21;100431.41;;;2.52;65.95
64086;BME280;50333;47.436;21.390;2023-01-27T05:11:49;100428.19;;;2.95;65.08
64086;BME280;50333;47.436;21.390;2023-01-27T05:14:17;100424.97;;;2.68;65.92
64086;BME280;50333;47.436;21.390;2023-01-27T05:16:44;100423.66;;;2.91;64.99
64086;BME280;50333;47.436;21.390;2023-01-27T05:19:12;100421.94;;;3.10;64.34
64086;BME280;50333;47.436;21.390;2023-01-27T05:21:40;100416.75;;;2.91;64.80
64086;BME280;50333;47.436;21.390;2023-01-27T05:24:09;100419.78;;;2.75;65.56
64086;BME280;50333;47.436;21.390;2023-01-27T05:26:37;100414.66;;;3.07;64.56
64086;BME280;50333;47.436;21.390;2023-01-27T05:29:05;100414.97;;;3.17;64.56
64086;BME280;50333;47.436;21.390;2023-01-27T05:31:33;100424.53;;;2.78;65.43
64086;BME280;50333;47.436;21.390;2023-01-27T05:34:01;100418.22;;;3.06;65.04
64086;BME280;50333;47.436;21.390;2023-01-27T05:36:29;100417.69;;;2.97;65.42
64086;BME280;50333;47.436;21.390;2023-01-27T05:38:58;100415.19;;;3.40;64.25
64086;BME280;50333;47.436;21.390;2023-01-27T05:41:28;100412.28;;;3.05;64.95
64086;BME280;50333;47.436;21.390;2023-01-27T05:43:57;100417.84;;;3.27;64.89
64086;BME280;50333;47.436;21.390;2023-01-27T05:46:27;100416.13;;;3.21;64.97
64086;BME280;50333;47.436;21.390;2023-01-27T05:48:58;100417.38;;;3.37;64.47
64086;BME280;50333;47.436;21.390;2023-01-27T05:51:32;100423.09;;;2.50;67.03
64086;BME280;50333;47.436;21.390;2023-01-27T05:54:01;100417.31;;;2.93;66.10
64086;BME280;50333;47.436;21.390;2023-01-27T05:56:29;100422.66;;;2.15;67.91
64086;BME280;50333;47.436;21.390;2023-01-27T05:58:57;100422.16;;;2.38;67.12
64086;BME280;50333;47.436;21.390;2023-01-27T06:01:30;100415.72;;;2.60;66.88
64086;BME280;50333;47.436;21.390;2023-01-27T06:03:59;100403.16;;;2.77;65.92
64086;BME280;50333;47.436;21.390;2023-01-27T06:06:29;100410.91;;;2.71;66.28
64086;BME280;50333;47.436;21.390;2023-01-27T06:08:58;100409.66;;;2.80;66.42
64086;BME280;50333;47.436;21.390;2023-01-27T06:11:26;100398.44;;;2.74;66.10
64086;BME280;50333;47.436;21.390;2023-01-27T06:13:54;100397.06;;;2.72;66.18
64086;BME280;50333;47.436;21.390;2023-01-27T06:16:22;100397.41;;;2.43;66.14
64086;BME280;50333;47.436;21.390;2023-01-27T06:18:51;100393.25;;;2.81;66.20
64086;BME280;50333;47.436;21.390;2023-01-27T06:21:18;100400.88;;;2.56;65.70
64086;BME280;50333;47.436;21.390;2023-01-27T06:23:47;100403.13;;;2.00;66.92
64086;BME280;50333;47.436;21.390;2023-01-27T06:26:18;100397.69;;;2.22;67.02
64086;BME280;50333;47.436;21.390;2023-01-27T06:28:46;100405.47;;;2.02;66.89
64086;BME280;50333;47.436;21.390;2023-01-27T06:31:17;100393.44;;;2.48;65.51
64086;BME280;50333;47.436;21.390;2023-01-27T06:33:46;100404.31;;;2.50;64.73
64086;BME280;50333;47.436;21.390;2023-01-27T06:36:17;100403.41;;;2.31;64.93
64086;BME280;50333;47.436;21.390;2023-01-27T06:38:46;100408.62;;;2.56;64.27
64086;BME280;50333;47.436;21.390;2023-01-27T06:41:14;100407.69;;;2.43;65.04
64086;BME280;50333;47.436;21.390;2023-01-27T06:43:42;100405.25;;;2.55;64.64
64086;BME280;50333;47.436;21.390;2023-01-27T06:46:09;100399.75;;;2.52;64.07
64086;BME280;50333;47.436;21.390;2023-01-27T06:48:37;100409.59;;;2.61;64.12
64086;BME280;50333;47.436;21.390;2023-01-27T06:51:05;100403.53;;;2.49;64.98
64086;BME280;50333;47.436;21.390;2023-01-27T06:53:33;100398.28;;;2.62;64.55
64086;BME280;50333;47.436;21.390;2023-01-27T06:56:04;100408.81;;;2.54;64.24
64086;BME280;50333;47.436;21.390;2023-01-27T06:58:31;100416.25;;;2.37;64.40
64086;BME280;50333;47.436;21.390;2023-01-27T07:01:00;100406.03;;;2.56;63.73
64086;BME280;50333;47.436;21.390;2023-01-27T07:03:30;100405.31;;;2.42;64.69
64086;BME280;50333;47.436;21.390;2023-01-27T07:05:58;100412.84;;;2.37;64.37
64086;BME280;50333;47.436;21.390;2023-01-27T07:08:26;100411.34;;;2.16;65.12
64086;BME280;50333;47.436;21.390;2023-01-27T07:10:53;100415.34;;;2.05;65.92
64086;BME280;50333;47.436;21.390;2023-01-27T07:13:21;100418.50;;;2.59;64.37
64086;BME280;50333;47.436;21.390;2023-01-27T07:15:54;100418.59;;;2.39;63.95
64086;BME280;50333;47.436;21.390;2023-01-27T07:18:22;100414.44;;;2.38;63.87
64086;BME280;50333;47.436;21.390;2023-01-27T07:20:51;100421.25;;;2.64;64.36
64086;BME280;50333;47.436;21.390;2023-01-27T07:23:19;100427.88;;;2.47;64.31
64086;BME280;50333;47.436;21.390;2023-01-27T07:25:46;100420.91;;;2.86;63.67
64086;BME280;50333;47.436;21.390;2023-01-27T07:28:14;100421.22;;;2.71;63.76
64086;BME280;50333;47.436;21.390;2023-01-27T07:30:42;100421.44;;;2.94;63.10
64086;BME280;50333;47.436;21.390;2023-01-27T07:33:11;100419.31;;;2.91;62.50
64086;BME280;50333;47.436;21.390;2023-01-27T07:35:40;100426.94;;;2.73;63.71
64086;BME280;50333;47.436;21.390;2023-01-27T07:38:09;100434.16;;;2.57;64.11
64086;BME280;50333;47.436;21.390;2023-01-27T07:40:37;100430.00;;;2.95;63.30
64086;BME280;50333;47.436;21.390;2023-01-27T07:43:05;100424.94;;;2.75;63.85
64086;BME280;50333;47.436;21.390;2023-01-27T07:45:33;100442.62;;;2.64;64.08
64086;BME280;50333;47.436;21.390;2023-01-27T07:48:03;100440.53;;;2.48;64.57
64086;BME280;50333;47.436;21.390;2023-01-27T07:50:31;100444.37;;;2.71;63.78
64086;BME280;50333;47.436;21.390;2023-01-27T07:53:01;100433.69;;;2.74;64.06
64086;BME280;50333;47.436;21.390;2023-01-27T07:55:29;100431.50;;;2.71;64.48
64086;BME280;50333;47.436;21.390;2023-01-27T07:57:57;100434.84;;;2.78;63.50
64086;BME280;50333;47.436;21.390;2023-01-27T08:00:26;100432.41;;;2.90;62.68
64086;BME280;50333;47.436;21.390;2023-01-27T08:02:56;100434.91;;;3.28;61.78
64086;BME280;50333;47.436;21.390;2023-01-27T08:05:25;100440.25;;;3.27;62.08
64086;BME280;50333;47.436;21.390;2023-01-27T08:07:54;100438.31;;;2.90;63.37
64086;BME280;50333;47.436;21.390;2023-01-27T08:10:25;100433.87;;;3.04;62.56
64086;BME280;50333;47.436;21.390;2023-01-27T08:12:53;100437.37;;;3.16;62.29
64086;BME280;50333;47.436;21.390;2023-01-27T08:15:21;100444.31;;;2.84;63.29
64086;BME280;50333;47.436;21.390;2023-01-27T08:17:54;100448.47;;;2.85;63.18
64086;BME280;50333;47.436;21.390;2023-01-27T08:20:23;100441.63;;;2.66;64.16
64086;BME280;50333;47.436;21.390;2023-01-27T08:22:51;100442.69;;;2.58;64.57
64086;BME280;50333;47.436;21.390;2023-01-27T08:25:19;100447.75;;;2.71;64.13
64086;BME280;50333;47.436;21.390;2023-01-27T08:27:52;100440.25;;;3.01;63.83
64086;BME280;50333;47.436;21.390;2023-01-27T08:30:21;100440.06;;;3.28;62.50
64086;BME280;50333;47.436;21.390;2023-01-27T08:32:49;100437.41;;;3.10;62.97
64086;BME280;50333;47.436;21.390;2023-01-27T08:35:17;100438.91;;;3.24;63.46
64086;BME280;50333;47.436;21.390;2023-01-27T08:37:46;100436.28;;;2.99;64.21
64086;BME280;50333;47.436;21.390;2023-01-27T08:40:16;100444.22;;;2.97;63.56
64086;BME280;50333;47.436;21.390;2023-01-27T08:42:44;100437.50;;;2.96;64.29
64086;BME280;50333;47.436;21.390;2023-01-27T08:45:12;100441.31;;;2.49;66.36
64086;BME280;50333;47.436;21.390;2023-01-27T08:47:40;100443.87;;;2.49;67.75
64086;BME280;50333;47.436;21.390;2023-01-27T08:50:09;100439.09;;;2.91;66.29
64086;BME280;50333;47.436;21.390;2023-01-27T08:52:38;100447.19;;;2.62;66.76
64086;BME280;50333;47.436;21.390;2023-01-27T08:55:06;100445.56;;;2.68;67.27
64086;BME280;50333;47.436;21.390;2023-01-27T08:57:33;100437.44;;;2.71;67.51
64086;BME280;50333;47.436;21.390;2023-01-27T09:00:04;100438.50;;;2.95;67.10
64086;BME280;50333;47.436;21.390;2023-01-27T09:02:33;100445.53;;;2.30;69.06
64086;BME280;50333;47.436;21.390;2023-01-27T09:05:01;100445.81;;;2.08;71.09
64086;BME280;50333;47.436;21.390;2023-01-27T09:07:29;100454.09;;;2.23;71.46
64086;BME280;50333;47.436;21.390;2023-01-27T09:09:57;100452.81;;;2.46;70.94
64086;BME280;50333;47.436;21.390;2023-01-27T09:12:42;100444.37;;;2.25;72.03
64086;BME280;50333;47.436;21.390;2023-01-27T09:15:12;100452.84;;;2.39;71.83
64086;BME280;50333;47.436;21.390;2023-01-27T09:17:40;100448.94;;;2.23;73.30
64086;BME280;50333;47.436;21.390;2023-01-27T09:20:09;100447.69;;;2.39;72.40
64086;BME280;50333;47.436;21.390;2023-01-27T09:22:38;100446.53;;;2.35;73.22
64086;BME280;50333;47.436;21.390;2023-01-27T09:25:09;100452.88;;;2.19;73.78
64086;BME280;50333;47.436;21.390;2023-01-27T09:27:39;100445.81;;;2.15;75.37
64086;BME280;50333;47.436;21.390;2023-01-27T09:30:08;100441.84;;;2.12;75.19
64086;BME280;50333;47.436;21.390;2023-01-27T09:32:37;100445.09;;;1.67;76.58
64086;BME280;50333;47.436;21.390;2023-01-27T09:35:06;100439.97;;;1.67;77.21
64086;BME280;50333;47.436;21.390;2023-01-27T09:37:39;100440.94;;;1.73;77.32
64086;BME280;50333;47.436;21.390;2023-01-27T10:11:13;100419.75;;;1.84;78.56
64086;BME280;50333;47.436;21.390;2023-01-27T10:14:14;100419.31;;;2.07;76.94
64086;BME280;50333;47.436;21.390;2023-01-27T10:28:11;100409.59;;;2.16;78.54
64086;BME280;50333;47.436;21.390;2023-01-27T10:31:00;100425.50;;;2.45;77.85
64086;BME280;50333;47.436;21.390;2023-01-27T10:33:44;100420.13;;;1.88;79.46
64086;BME280;50333;47.436;21.390;2023-01-27T10:36:26;100420.81;;;1.50;82.05
64086;BME280;50333;47.436;21.390;2023-01-27T10:41:55;100415.63;;;1.83;80.59
64086;BME280;50333;47.436;21.390;2023-01-27T10:47:33;100416.22;;;1.72;82.44
64086;BME280;50333;47.436;21.390;2023-01-27T10:50:12;100417.75;;;2.00;80.76
64086;BME280;50333;47.436;21.390;2023-01-27T10:52:59;100400.41;;;1.62;81.63
64086;BME280;50333;47.436;21.390;2023-01-27T10:55:39;100408.94;;;1.56;83.36
64086;BME280;50333;47.436;21.390;2023-01-27T10:58:10;100399.44;;;1.43;83.72
64086;BME280;50333;47.436;21.390;2023-01-27T11:00:44;100395.91;;;2.22;81.45
64086;BME280;50333;47.436;21.390;2023-01-27T11:03:44;100390.28;;;1.94;81.59
64086;BME280;50333;47.436;21.390;2023-01-27T11:06:19;100386.19;;;2.24;81.13
64086;BME280;50333;47.436;21.390;2023-01-27T11:08:58;100386.69;;;2.01;82.29
64086;BME280;50333;47.436;21.390;2023-01-27T11:11:29;100387.47;;;2.02;82.22
64086;BME280;50333;47.436;21.390;2023-01-27T11:16:47;100372.47;;;2.44;80.32
64086;BME280;50333;47.436;21.390;2023-01-27T11:19:23;100382.16;;;1.97;82.61
64086;BME280;50333;47.436;21.390;2023-01-27T11:21:53;100373.53;;;2.23;82.10
64086;BME280;50333;47.436;21.390;2023-01-27T11:24:58;100364.59;;;2.39;81.89
64086;BME280;50333;47.436;21.390;2023-01-27T11:27:38;100355.22;;;2.13;82.09
64086;BME280;50333;47.436;21.390;2023-01-27T11:30:21;100352.16;;;1.84;81.88
64086;BME280;50333;47.436;21.390;2023-01-27T11:33:01;100359.37;;;2.07;81.18
64086;BME280;50333;47.436;21.390;2023-01-27T11:35:31;100347.72;;;2.43;81.65
64086;BME280;50333;47.436;21.390;2023-01-27T11:37:59;100355.59;;;2.16;80.87
64086;BME280;50333;47.436;21.390;2023-01-27T11:40:42;100355.87;;;2.33;79.69
64086;BME280;50333;47.436;21.390;2023-01-27T11:43:18;100349.41;;;2.56;80.05
64086;BME280;50333;47.436;21.390;2023-01-27T11:45:48;100341.91;;;2.54;81.04
64086;BME280;50333;47.436;21.390;2023-01-27T11:48:19;100342.81;;;2.35;79.77
64086;BME280;50333;47.436;21.390;2023-01-27T11:50:50;100355.06;;;2.01;81.74
64086;BME280;50333;47.436;21.390;2023-01-27T11:53:23;100347.62;;;2.24;80.86
64086;BME280;50333;47.436;21.390;2023-01-27T11:55:57;100348.69;;;2.03;81.32
64086;BME280;50333;47.436;21.390;2023-01-27T11:58:42;100338.00;;;2.45;79.75
64086;BME280;50333;47.436;21.390;2023-01-27T12:01:15;100334.28;;;2.41;79.83
64086;BME280;50333;47.436;21.390;2023-01-27T12:03:56;100336.75;;;2.54;79.86
64086;BME280;50333;47.436;21.390;2023-01-27T12:06:39;100343.50;;;2.55;79.56
64086;BME280;50333;47.436;21.390;2023-01-27T12:09:31;100354.41;;;2.12;80.53
64086;BME280;50333;47.436;21.390;2023-01-27T12:14:59;100341.53;;;2.19;80.95
64086;BME280;50333;47.436;21.390;2023-01-27T12:18:02;100331.78;;;2.28;81.19
64086;BME280;50333;47.436;21.390;2023-01-27T12:20:39;100317.53;;;2.32;81.44
64086;BME280;50333;47.436;21.390;2023-01-27T12:23:21;100332.84;;;2.13;81.44
64086;BME280;50333;47.436;21.390;2023-01-27T12:26:01;100338.97;;;2.12;81.82
64086;BME280;50333;47.436;21.390;2023-01-27T12:28:35;100329.00;;;2.29;82.34
64086;BME280;50333;47.436;21.390;2023-01-27T12:31:10;100331.19;;;2.25;81.01
64086;BME280;50333;47.436;21.390;2023-01-27T12:33:44;100328.72;;;2.44;81.59
64086;BME280;50333;47.436;21.390;2023-01-27T12:36:19;100327.16;;;2.68;81.21
64086;BME280;50333;47.436;21.390;2023-01-27T12:38:55;100344.53;;;2.79;80.83
64086;BME280;50333;47.436;21.390;2023-01-27T12:41:26;100340.09;;;2.61;80.02
64086;BME280;50333;47.436;21.390;2023-01-27T12:43:57;100340.47;;;2.65;79.98
64086;BME280;50333;47.436;21.390;2023-01-27T12:46:28;100341.09;;;2.86;80.09
64086;BME280;50333;47.436;21.390;2023-01-27T12:49:19;100336.81;;;2.48;81.11
64086;BME280;50333;47.436;21.390;2023-01-27T12:51:53;100333.97;;;2.56;80.44
64086;BME280;50333;47.436;21.390;2023-01-27T12:54:27;100333.53;;;2.66;80.79
64086;BME280;50333;47.436;21.390;2023-01-27T12:57:01;100327.75;;;2.95;79.93
64086;BME280;50333;47.436;21.390;2023-01-27T12:59:29;100328.91;;;2.99;79.50
64086;BME280;50333;47.436;21.390;2023-01-27T13:04:39;100324.34;;;2.51;80.70
64086;BME280;50333;47.436;21.390;2023-01-27T13:07:14;100318.47;;;2.69;80.18
64086;BME280;50333;47.436;21.390;2023-01-27T13:09:54;100309.09;;;2.75;80.49
64086;BME280;50333;47.436;21.390;2023-01-27T13:12:30;100311.09;;;2.73;80.82
64086;BME280;50333;47.436;21.390;2023-01-27T13:15:13;100308.56;;;2.66;81.41
64086;BME280;50333;47.436;21.390;2023-01-27T13:17:48;100313.19;;;2.89;79.37
64086;BME280;50333;47.436;21.390;2023-01-27T13:20:30;100310.84;;;2.81;79.98
64086;BME280;50333;47.436;21.390;2023-01-27T13:23:17;100315.31;;;2.67;80.60
64086;BME280;50333;47.436;21.390;2023-01-27T13:26:09;100326.38;;;2.68;81.07
64086;BME280;50333;47.436;21.390;2023-01-27T13:34:48;100309.97;;;2.69;81.72
64086;BME280;50333;47.436;21.390;2023-01-27T13:37:30;100319.00;;;2.78;80.43
64086;BME280;50333;47.436;21.390;2023-01-27T13:40:15;100320.28;;;2.87;79.90
64086;BME280;50333;47.436;21.390;2023-01-27T13:42:50;100319.16;;;2.83;80.82
64086;BME280;50333;47.436;21.390;2023-01-27T13:45:42;100325.44;;;2.87;79.97
64086;BME280;50333;47.436;21.390;2023-01-27T13:48:21;100331.94;;;2.96;79.38
64086;BME280;50333;47.436;21.390;2023-01-27T13:50:57;100323.03;;;2.92;79.49
64086;BME280;50333;47.436;21.390;2023-01-27T13:53:28;100321.31;;;2.86;79.24
64086;BME280;50333;47.436;21.390;2023-01-27T13:58:41;100322.66;;;2.89;79.73
64086;BME280;50333;47.436;21.390;2023-01-27T14:01:23;100321.56;;;3.03;78.77
64086;BME280;50333;47.436;21.390;2023-01-27T14:04:14;100331.72;;;2.98;78.51
64086;BME280;50333;47.436;21.390;2023-01-27T14:06:59;100334.69;;;3.20;78.67
64086;BME280;50333;47.436;21.390;2023-01-27T14:28:49;100345.41;;;2.67;79.62
64086;BME280;50333;47.436;21.390;2023-01-27T14:31:39;100352.81;;;2.81;79.30
64086;BME280;50333;47.436;21.390;2023-01-27T14:37:03;100352.00;;;3.13;77.80
64086;BME280;50333;47.436;21.390;2023-01-27T14:39:43;100362.28;;;3.13;78.31
64086;BME280;50333;47.436;21.390;2023-01-27T14:42:25;100354.94;;;2.59;79.75
64086;BME280;50333;47.436;21.390;2023-01-27T14:45:20;100364.34;;;2.79;79.13
64086;BME280;50333;47.436;21.390;2023-01-27T14:47:57;100372.81;;;2.86;78.74
64086;BME280;50333;47.436;21.390;2023-01-27T14:55:49;100365.87;;;2.87;78.84